Van Buren, Indiana
Current Conditions -  °F | °C
As of 3:15 PM on Wednesday 28 Jan 2015 (Local Time) from KMZZ Reporting Station
Clear Clear  
Wind Chill: 22°   Ceiling: Unl
Heat Index: 31°   Visibility: 10mi
Dew Point: 16°   Wind: 10mph
Humidity: 54%   Direction: 160°SSE
Pressure: 30.22"   Gusts: NA
Location:  40.62°N, 85.5°W
Report Text: KMZZ 282015Z AUTO 16009KT 10SM CLR M01/M09 A3022 RMK AO2 T10061088
Loading
Personal Weather Stations






























Interactive Weather Map New forecast layout! Learn more

10-Day Weather Forecast

Advertisements
Track Severe Weather on mobile